sensor_id;sensor_type;location;lat;lon;timestamp;P1;durP1;ratioP1;P2;durP2;ratioP2
31966;SDS011;18496;52.042;6.812;2023-04-30T00:01:26;16.25;;;7.13;;
31966;SDS011;18496;52.042;6.812;2023-04-30T00:03:29;11.88;;;7.15;;
31966;SDS011;18496;52.042;6.812;2023-04-30T00:05:33;12.25;;;6.53;;
31966;SDS011;18496;52.042;6.812;2023-04-30T00:07:37;11.02;;;6.75;;
31966;SDS011;18496;52.042;6.812;2023-04-30T00:09:44;11.85;;;7.22;;
31966;SDS011;18496;52.042;6.812;2023-04-30T00:11:48;17.63;;;6.80;;
31966;SDS011;18496;52.042;6.812;2023-04-30T00:13:51;12.93;;;7.28;;
31966;SDS011;18496;52.042;6.812;2023-04-30T00:15:55;11.75;;;6.78;;
31966;SDS011;18496;52.042;6.812;2023-04-30T00:17:59;13.63;;;7.22;;
31966;SDS011;18496;52.042;6.812;2023-04-30T00:20:03;12.77;;;6.40;;
31966;SDS011;18496;52.042;6.812;2023-04-30T00:22:07;13.43;;;6.65;;
31966;SDS011;18496;52.042;6.812;2023-04-30T00:24:10;9.55;;;6.93;;
31966;SDS011;18496;52.042;6.812;2023-04-30T00:26:14;15.18;;;6.57;;
31966;SDS011;18496;52.042;6.812;2023-04-30T00:28:22;11.57;;;6.80;;
31966;SDS011;18496;52.042;6.812;2023-04-30T00:30:26;11.75;;;6.93;;
31966;SDS011;18496;52.042;6.812;2023-04-30T00:32:30;11.30;;;7.07;;
31966;SDS011;18496;52.042;6.812;2023-04-30T00:34:33;11.75;;;6.78;;
31966;SDS011;18496;52.042;6.812;2023-04-30T00:36:37;13.93;;;7.05;;
31966;SDS011;18496;52.042;6.812;2023-04-30T00:38:42;11.25;;;6.88;;
31966;SDS011;18496;52.042;6.812;2023-04-30T00:40:46;10.73;;;7.07;;
31966;SDS011;18496;52.042;6.812;2023-04-30T00:42:49;8.30;;;6.18;;
31966;SDS011;18496;52.042;6.812;2023-04-30T00:44:55;12.13;;;7.47;;
31966;SDS011;18496;52.042;6.812;2023-04-30T00:46:59;10.40;;;6.75;;
31966;SDS011;18496;52.042;6.812;2023-04-30T00:49:02;9.23;;;6.65;;
31966;SDS011;18496;52.042;6.812;2023-04-30T00:51:07;12.00;;;7.15;;
31966;SDS011;18496;52.042;6.812;2023-04-30T00:53:11;11.13;;;7.20;;
31966;SDS011;18496;52.042;6.812;2023-04-30T00:55:15;13.25;;;7.72;;
31966;SDS011;18496;52.042;6.812;2023-04-30T00:57:19;13.32;;;6.78;;
31966;SDS011;18496;52.042;6.812;2023-04-30T00:59:24;9.55;;;6.78;;
31966;SDS011;18496;52.042;6.812;2023-04-30T01:01:27;10.38;;;7.05;;
31966;SDS011;18496;52.042;6.812;2023-04-30T01:03:31;13.20;;;7.38;;
31966;SDS011;18496;52.042;6.812;2023-04-30T01:05:37;10.88;;;7.30;;
31966;SDS011;18496;52.042;6.812;2023-04-30T01:07:41;15.93;;;7.82;;
31966;SDS011;18496;52.042;6.812;2023-04-30T01:09:47;17.10;;;8.15;;
31966;SDS011;18496;52.042;6.812;2023-04-30T01:11:55;13.20;;;8.18;;
31966;SDS011;18496;52.042;6.812;2023-04-30T01:14:27;11.82;;;7.63;;
31966;SDS011;18496;52.042;6.812;2023-04-30T01:16:34;8.98;;;6.13;;
31966;SDS011;18496;52.042;6.812;2023-04-30T01:18:44;11.90;;;6.72;;
31966;SDS011;18496;52.042;6.812;2023-04-30T01:21:01;10.05;;;6.82;;
31966;SDS011;18496;52.042;6.812;2023-04-30T01:28:01;12.48;;;7.28;;
31966;SDS011;18496;52.042;6.812;2023-04-30T01:30:09;11.90;;;6.75;;
31966;SDS011;18496;52.042;6.812;2023-04-30T01:32:15;11.35;;;7.53;;
31966;SDS011;18496;52.042;6.812;2023-04-30T01:34:21;11.23;;;7.10;;
31966;SDS011;18496;52.042;6.812;2023-04-30T01:36:29;9.20;;;6.57;;
31966;SDS011;18496;52.042;6.812;2023-04-30T01:41:33;11.13;;;6.97;;
31966;SDS011;18496;52.042;6.812;2023-04-30T01:44:16;12.23;;;6.93;;
31966;SDS011;18496;52.042;6.812;2023-04-30T01:46:31;10.80;;;6.55;;
31966;SDS011;18496;52.042;6.812;2023-04-30T01:50:49;11.32;;;6.93;;
31966;SDS011;18496;52.042;6.812;2023-04-30T01:53:00;9.75;;;6.55;;
31966;SDS011;18496;52.042;6.812;2023-04-30T01:55:19;11.98;;;7.28;;
31966;SDS011;18496;52.042;6.812;2023-04-30T01:57:27;15.32;;;8.85;;
31966;SDS011;18496;52.042;6.812;2023-04-30T01:59:38;13.73;;;8.68;;
31966;SDS011;18496;52.042;6.812;2023-04-30T02:01:43;13.50;;;8.80;;
31966;SDS011;18496;52.042;6.812;2023-04-30T02:03:50;13.88;;;8.93;;
31966;SDS011;18496;52.042;6.812;2023-04-30T02:05:53;14.00;;;8.63;;
31966;SDS011;18496;52.042;6.812;2023-04-30T02:07:57;13.48;;;8.43;;
31966;SDS011;18496;52.042;6.812;2023-04-30T02:10:01;14.63;;;7.80;;
31966;SDS011;18496;52.042;6.812;2023-04-30T02:12:05;12.82;;;7.63;;
31966;SDS011;18496;52.042;6.812;2023-04-30T02:14:09;14.88;;;8.52;;
31966;SDS011;18496;52.042;6.812;2023-04-30T02:16:13;10.20;;;7.22;;
31966;SDS011;18496;52.042;6.812;2023-04-30T02:18:17;11.60;;;7.05;;
31966;SDS011;18496;52.042;6.812;2023-04-30T02:20:21;13.50;;;7.93;;
31966;SDS011;18496;52.042;6.812;2023-04-30T02:22:25;10.70;;;7.07;;
31966;SDS011;18496;52.042;6.812;2023-04-30T02:24:29;11.70;;;7.43;;
31966;SDS011;18496;52.042;6.812;2023-04-30T02:26:33;11.52;;;7.38;;
31966;SDS011;18496;52.042;6.812;2023-04-30T02:28:36;10.82;;;7.20;;
31966;SDS011;18496;52.042;6.812;2023-04-30T02:30:43;11.45;;;7.13;;
31966;SDS011;18496;52.042;6.812;2023-04-30T02:32:46;11.38;;;6.93;;
31966;SDS011;18496;52.042;6.812;2023-04-30T02:34:50;15.23;;;6.97;;
31966;SDS011;18496;52.042;6.812;2023-04-30T02:36:54;11.07;;;7.03;;
31966;SDS011;18496;52.042;6.812;2023-04-30T02:38:57;14.85;;;7.05;;
31966;SDS011;18496;52.042;6.812;2023-04-30T02:41:01;10.43;;;7.03;;
31966;SDS011;18496;52.042;6.812;2023-04-30T02:43:05;13.02;;;7.47;;
31966;SDS011;18496;52.042;6.812;2023-04-30T02:45:09;10.18;;;7.30;;
31966;SDS011;18496;52.042;6.812;2023-04-30T02:47:13;11.25;;;6.75;;
31966;SDS011;18496;52.042;6.812;2023-04-30T02:49:17;10.70;;;6.93;;
31966;SDS011;18496;52.042;6.812;2023-04-30T02:51:20;11.95;;;6.55;;
31966;SDS011;18496;52.042;6.812;2023-04-30T02:53:24;9.18;;;6.72;;
31966;SDS011;18496;52.042;6.812;2023-04-30T02:55:28;11.85;;;6.45;;
31966;SDS011;18496;52.042;6.812;2023-04-30T02:57:32;11.63;;;6.80;;
31966;SDS011;18496;52.042;6.812;2023-04-30T02:59:35;14.85;;;7.05;;
31966;SDS011;18496;52.042;6.812;2023-04-30T03:01:40;20.08;;;7.20;;
31966;SDS011;18496;52.042;6.812;2023-04-30T03:03:44;12.93;;;7.25;;
31966;SDS011;18496;52.042;6.812;2023-04-30T03:05:48;9.43;;;6.88;;
31966;SDS011;18496;52.042;6.812;2023-04-30T03:07:52;8.52;;;6.50;;
31966;SDS011;18496;52.042;6.812;2023-04-30T03:09:56;11.90;;;7.05;;
31966;SDS011;18496;52.042;6.812;2023-04-30T03:12:02;9.13;;;6.50;;
31966;SDS011;18496;52.042;6.812;2023-04-30T03:14:06;10.90;;;7.18;;
31966;SDS011;18496;52.042;6.812;2023-04-30T03:16:10;9.15;;;7.20;;
31966;SDS011;18496;52.042;6.812;2023-04-30T03:18:14;10.32;;;6.82;;
31966;SDS011;18496;52.042;6.812;2023-04-30T03:20:18;19.17;;;7.15;;
31966;SDS011;18496;52.042;6.812;2023-04-30T03:22:21;11.95;;;7.00;;
31966;SDS011;18496;52.042;6.812;2023-04-30T03:24:26;16.42;;;9.43;;
31966;SDS011;18496;52.042;6.812;2023-04-30T03:26:29;22.27;;;10.30;;
31966;SDS011;18496;52.042;6.812;2023-04-30T03:28:33;23.00;;;11.40;;
31966;SDS011;18496;52.042;6.812;2023-04-30T03:30:38;16.42;;;9.07;;
31966;SDS011;18496;52.042;6.812;2023-04-30T03:32:41;17.15;;;8.13;;
31966;SDS011;18496;52.042;6.812;2023-04-30T03:34:45;13.23;;;7.93;;
31966;SDS011;18496;52.042;6.812;2023-04-30T03:36:49;14.20;;;8.13;;
31966;SDS011;18496;52.042;6.812;2023-04-30T03:38:52;10.88;;;7.20;;
31966;SDS011;18496;52.042;6.812;2023-04-30T03:40:56;12.57;;;7.35;;
31966;SDS011;18496;52.042;6.812;2023-04-30T03:43:00;10.45;;;6.88;;
31966;SDS011;18496;52.042;6.812;2023-04-30T03:45:04;11.27;;;6.80;;
31966;SDS011;18496;52.042;6.812;2023-04-30T03:47:08;14.02;;;7.65;;
31966;SDS011;18496;52.042;6.812;2023-04-30T03:49:12;13.50;;;7.38;;
31966;SDS011;18496;52.042;6.812;2023-04-30T03:51:16;10.18;;;6.68;;
31966;SDS011;18496;52.042;6.812;2023-04-30T03:53:21;12.00;;;7.47;;
31966;SDS011;18496;52.042;6.812;2023-04-30T03:55:26;11.45;;;7.32;;
31966;SDS011;18496;52.042;6.812;2023-04-30T03:57:31;11.90;;;7.30;;
31966;SDS011;18496;52.042;6.812;2023-04-30T03:59:35;10.55;;;7.25;;
31966;SDS011;18496;52.042;6.812;2023-04-30T04:01:39;11.65;;;7.35;;
31966;SDS011;18496;52.042;6.812;2023-04-30T04:03:44;13.80;;;8.55;;
31966;SDS011;18496;52.042;6.812;2023-04-30T04:05:50;11.93;;;7.95;;
31966;SDS011;18496;52.042;6.812;2023-04-30T04:07:54;16.13;;;8.05;;
31966;SDS011;18496;52.042;6.812;2023-04-30T04:09:57;9.98;;;6.68;;
31966;SDS011;18496;52.042;6.812;2023-04-30T04:12:02;12.43;;;7.57;;
31966;SDS011;18496;52.042;6.812;2023-04-30T04:14:07;12.63;;;7.15;;
31966;SDS011;18496;52.042;6.812;2023-04-30T04:16:10;10.05;;;7.32;;
31966;SDS011;18496;52.042;6.812;2023-04-30T04:18:14;11.25;;;7.45;;
31966;SDS011;18496;52.042;6.812;2023-04-30T04:20:18;12.02;;;7.60;;
31966;SDS011;18496;52.042;6.812;2023-04-30T04:22:21;11.38;;;7.28;;
31966;SDS011;18496;52.042;6.812;2023-04-30T04:24:26;12.98;;;8.15;;
31966;SDS011;18496;52.042;6.812;2023-04-30T04:26:29;14.00;;;9.05;;
31966;SDS011;18496;52.042;6.812;2023-04-30T04:28:33;14.07;;;8.00;;
31966;SDS011;18496;52.042;6.812;2023-04-30T04:30:39;14.27;;;8.45;;
31966;SDS011;18496;52.042;6.812;2023-04-30T04:32:43;17.17;;;9.07;;
31966;SDS011;18496;52.042;6.812;2023-04-30T04:34:52;20.95;;;9.88;;
31966;SDS011;18496;52.042;6.812;2023-04-30T04:36:56;18.70;;;9.65;;
31966;SDS011;18496;52.042;6.812;2023-04-30T04:39:00;13.73;;;9.35;;
31966;SDS011;18496;52.042;6.812;2023-04-30T04:41:05;19.75;;;9.65;;
31966;SDS011;18496;52.042;6.812;2023-04-30T04:43:08;16.00;;;9.55;;
31966;SDS011;18496;52.042;6.812;2023-04-30T04:45:12;18.85;;;10.52;;
31966;SDS011;18496;52.042;6.812;2023-04-30T04:47:18;15.60;;;9.23;;
31966;SDS011;18496;52.042;6.812;2023-04-30T04:49:23;15.93;;;9.60;;
31966;SDS011;18496;52.042;6.812;2023-04-30T04:51:28;15.20;;;9.60;;
31966;SDS011;18496;52.042;6.812;2023-04-30T04:53:32;16.98;;;9.98;;
31966;SDS011;18496;52.042;6.812;2023-04-30T04:55:35;14.85;;;9.38;;
31966;SDS011;18496;52.042;6.812;2023-04-30T04:57:39;14.18;;;8.98;;
31966;SDS011;18496;52.042;6.812;2023-04-30T04:59:44;19.55;;;9.45;;
31966;SDS011;18496;52.042;6.812;2023-04-30T05:01:48;25.33;;;9.55;;
31966;SDS011;18496;52.042;6.812;2023-04-30T05:03:51;17.63;;;9.38;;
31966;SDS011;18496;52.042;6.812;2023-04-30T05:05:56;19.15;;;9.38;;
31966;SDS011;18496;52.042;6.812;2023-04-30T05:08:00;17.27;;;9.75;;
31966;SDS011;18496;52.042;6.812;2023-04-30T05:10:03;17.20;;;10.30;;
31966;SDS011;18496;52.042;6.812;2023-04-30T05:12:08;17.30;;;9.50;;
31966;SDS011;18496;52.042;6.812;2023-04-30T05:14:11;16.55;;;9.32;;
31966;SDS011;18496;52.042;6.812;2023-04-30T05:16:15;16.05;;;9.15;;
31966;SDS011;18496;52.042;6.812;2023-04-30T05:18:19;21.45;;;9.75;;
31966;SDS011;18496;52.042;6.812;2023-04-30T05:20:23;13.43;;;8.75;;
31966;SDS011;18496;52.042;6.812;2023-04-30T05:22:26;15.35;;;9.02;;
31966;SDS011;18496;52.042;6.812;2023-04-30T05:24:30;14.38;;;9.05;;
31966;SDS011;18496;52.042;6.812;2023-04-30T05:26:34;17.95;;;9.75;;
31966;SDS011;18496;52.042;6.812;2023-04-30T05:28:37;17.85;;;9.10;;
31966;SDS011;18496;52.042;6.812;2023-04-30T05:30:41;14.07;;;8.77;;
31966;SDS011;18496;52.042;6.812;2023-04-30T05:32:44;15.15;;;8.32;;
31966;SDS011;18496;52.042;6.812;2023-04-30T05:34:52;16.13;;;7.82;;
31966;SDS011;18496;52.042;6.812;2023-04-30T05:36:56;12.75;;;8.35;;
31966;SDS011;18496;52.042;6.812;2023-04-30T05:39:00;13.80;;;7.97;;
31966;SDS011;18496;52.042;6.812;2023-04-30T05:41:03;14.45;;;7.82;;
31966;SDS011;18496;52.042;6.812;2023-04-30T05:43:07;14.10;;;8.55;;
31966;SDS011;18496;52.042;6.812;2023-04-30T05:45:11;13.93;;;7.85;;
31966;SDS011;18496;52.042;6.812;2023-04-30T05:47:16;10.38;;;7.85;;
31966;SDS011;18496;52.042;6.812;2023-04-30T05:49:20;12.43;;;8.63;;
31966;SDS011;18496;52.042;6.812;2023-04-30T05:51:23;15.48;;;8.63;;
31966;SDS011;18496;52.042;6.812;2023-04-30T05:53:27;14.95;;;8.70;;
31966;SDS011;18496;52.042;6.812;2023-04-30T05:55:31;14.35;;;8.80;;
31966;SDS011;18496;52.042;6.812;2023-04-30T05:57:34;13.57;;;7.97;;
31966;SDS011;18496;52.042;6.812;2023-04-30T05:59:38;12.27;;;7.20;;
31966;SDS011;18496;52.042;6.812;2023-04-30T06:01:42;12.00;;;7.40;;
31966;SDS011;18496;52.042;6.812;2023-04-30T06:03:46;16.25;;;6.60;;
31966;SDS011;18496;52.042;6.812;2023-04-30T06:05:49;15.70;;;7.13;;
31966;SDS011;18496;52.042;6.812;2023-04-30T06:07:53;14.20;;;8.20;;
31966;SDS011;18496;52.042;6.812;2023-04-30T06:09:56;14.23;;;7.63;;
31966;SDS011;18496;52.042;6.812;2023-04-30T06:12:00;16.60;;;8.52;;
31966;SDS011;18496;52.042;6.812;2023-04-30T06:14:05;11.65;;;6.80;;
31966;SDS011;18496;52.042;6.812;2023-04-30T06:16:09;22.08;;;9.07;;
31966;SDS011;18496;52.042;6.812;2023-04-30T06:18:13;16.67;;;7.38;;
31966;SDS011;18496;52.042;6.812;2023-04-30T06:20:16;14.93;;;8.20;;
31966;SDS011;18496;52.042;6.812;2023-04-30T06:22:20;16.75;;;7.47;;
31966;SDS011;18496;52.042;6.812;2023-04-30T06:24:24;11.52;;;6.82;;
31966;SDS011;18496;52.042;6.812;2023-04-30T06:26:29;20.00;;;8.18;;
31966;SDS011;18496;52.042;6.812;2023-04-30T06:28:33;15.30;;;7.60;;
31966;SDS011;18496;52.042;6.812;2023-04-30T06:30:36;18.48;;;6.80;;
31966;SDS011;18496;52.042;6.812;2023-04-30T06:32:40;11.85;;;6.32;;
31966;SDS011;18496;52.042;6.812;2023-04-30T06:34:43;11.55;;;6.13;;
31966;SDS011;18496;52.042;6.812;2023-04-30T06:36:47;13.60;;;7.97;;
31966;SDS011;18496;52.042;6.812;2023-04-30T06:38:51;14.40;;;7.00;;
31966;SDS011;18496;52.042;6.812;2023-04-30T06:40:54;16.58;;;7.70;;
31966;SDS011;18496;52.042;6.812;2023-04-30T06:42:58;14.88;;;6.47;;
31966;SDS011;18496;52.042;6.812;2023-04-30T06:45:02;13.48;;;6.40;;
31966;SDS011;18496;52.042;6.812;2023-04-30T06:47:06;13.77;;;7.00;;
31966;SDS011;18496;52.042;6.812;2023-04-30T06:49:09;12.68;;;7.40;;
31966;SDS011;18496;52.042;6.812;2023-04-30T06:51:13;16.48;;;6.80;;
31966;SDS011;18496;52.042;6.812;2023-04-30T06:53:17;10.70;;;6.47;;
31966;SDS011;18496;52.042;6.812;2023-04-30T06:55:21;10.18;;;6.63;;
31966;SDS011;18496;52.042;6.812;2023-04-30T06:57:25;13.13;;;6.60;;
31966;SDS011;18496;52.042;6.812;2023-04-30T06:59:29;13.48;;;7.18;;
31966;SDS011;18496;52.042;6.812;2023-04-30T07:01:33;10.75;;;6.70;;
31966;SDS011;18496;52.042;6.812;2023-04-30T07:03:36;12.63;;;7.05;;
31966;SDS011;18496;52.042;6.812;2023-04-30T07:05:40;11.02;;;6.18;;
31966;SDS011;18496;52.042;6.812;2023-04-30T07:07:44;17.40;;;9.07;;
31966;SDS011;18496;52.042;6.812;2023-04-30T07:09:48;15.70;;;7.93;;
31966;SDS011;18496;52.042;6.812;2023-04-30T07:11:52;10.25;;;5.70;;
31966;SDS011;18496;52.042;6.812;2023-04-30T07:13:56;12.80;;;6.35;;
31966;SDS011;18496;52.042;6.812;2023-04-30T07:16:00;14.45;;;7.07;;
31966;SDS011;18496;52.042;6.812;2023-04-30T07:18:03;15.55;;;6.03;;
31966;SDS011;18496;52.042;6.812;2023-04-30T07:20:07;17.35;;;6.70;;
31966;SDS011;18496;52.042;6.812;2023-04-30T07:22:11;18.58;;;8.95;;
31966;SDS011;18496;52.042;6.812;2023-04-30T07:24:15;14.20;;;7.35;;
31966;SDS011;18496;52.042;6.812;2023-04-30T07:26:18;16.95;;;6.28;;
31966;SDS011;18496;52.042;6.812;2023-04-30T07:28:22;14.63;;;6.55;;
31966;SDS011;18496;52.042;6.812;2023-04-30T07:30:26;10.57;;;6.07;;
31966;SDS011;18496;52.042;6.812;2023-04-30T07:32:30;28.17;;;10.70;;
31966;SDS011;18496;52.042;6.812;2023-04-30T07:34:33;22.23;;;8.65;;
31966;SDS011;18496;52.042;6.812;2023-04-30T07:36:37;17.55;;;8.02;;
31966;SDS011;18496;52.042;6.812;2023-04-30T07:38:41;9.02;;;6.00;;
31966;SDS011;18496;52.042;6.812;2023-04-30T07:40:45;28.00;;;11.20;;
31966;SDS011;18496;52.042;6.812;2023-04-30T07:42:48;16.85;;;7.03;;
31966;SDS011;18496;52.042;6.812;2023-04-30T07:44:52;10.85;;;6.28;;
31966;SDS011;18496;52.042;6.812;2023-04-30T07:46:56;16.35;;;7.28;;
31966;SDS011;18496;52.042;6.812;2023-04-30T07:48:59;12.20;;;5.93;;
31966;SDS011;18496;52.042;6.812;2023-04-30T07:51:03;12.43;;;6.38;;
31966;SDS011;18496;52.042;6.812;2023-04-30T07:53:07;20.75;;;7.55;;
31966;SDS011;18496;52.042;6.812;2023-04-30T07:55:13;11.77;;;6.30;;
31966;SDS011;18496;52.042;6.812;2023-04-30T07:57:17;18.00;;;6.82;;
31966;SDS011;18496;52.042;6.812;2023-04-30T07:59:20;14.45;;;7.30;;
31966;SDS011;18496;52.042;6.812;2023-04-30T08:01:26;13.15;;;7.10;;
31966;SDS011;18496;52.042;6.812;2023-04-30T08:03:30;13.02;;;6.78;;
31966;SDS011;18496;52.042;6.812;2023-04-30T08:05:33;16.00;;;5.63;;
31966;SDS011;18496;52.042;6.812;2023-04-30T08:07:37;13.68;;;5.13;;
31966;SDS011;18496;52.042;6.812;2023-04-30T08:09:41;11.52;;;5.28;;
31966;SDS011;18496;52.042;6.812;2023-04-30T08:11:45;14.60;;;5.97;;
31966;SDS011;18496;52.042;6.812;2023-04-30T08:13:48;10.27;;;5.50;;
31966;SDS011;18496;52.042;6.812;2023-04-30T08:15:52;10.77;;;5.57;;
31966;SDS011;18496;52.042;6.812;2023-04-30T08:17:56;10.13;;;5.15;;
31966;SDS011;18496;52.042;6.812;2023-04-30T08:20:00;9.50;;;5.40;;
31966;SDS011;18496;52.042;6.812;2023-04-30T08:22:05;10.23;;;5.05;;
31966;SDS011;18496;52.042;6.812;2023-04-30T08:24:09;12.73;;;5.53;;
31966;SDS011;18496;52.042;6.812;2023-04-30T08:26:13;11.27;;;4.97;;
31966;SDS011;18496;52.042;6.812;2023-04-30T08:28:16;16.48;;;5.57;;
31966;SDS011;18496;52.042;6.812;2023-04-30T08:30:20;19.52;;;5.90;;
31966;SDS011;18496;52.042;6.812;2023-04-30T08:32:24;14.77;;;5.05;;
31966;SDS011;18496;52.042;6.812;2023-04-30T08:34:28;12.93;;;5.95;;
31966;SDS011;18496;52.042;6.812;2023-04-30T08:36:31;15.93;;;4.95;;
31966;SDS011;18496;52.042;6.812;2023-04-30T08:38:35;10.35;;;4.43;;
31966;SDS011;18496;52.042;6.812;2023-04-30T08:40:39;10.38;;;4.82;;
31966;SDS011;18496;52.042;6.812;2023-04-30T08:42:45;13.05;;;4.68;;
31966;SDS011;18496;52.042;6.812;2023-04-30T08:44:59;11.65;;;4.20;;
31966;SDS011;18496;52.042;6.812;2023-04-30T08:47:03;9.80;;;3.78;;
31966;SDS011;18496;52.042;6.812;2023-04-30T08:49:10;10.40;;;4.45;;
31966;SDS011;18496;52.042;6.812;2023-04-30T08:51:14;10.60;;;4.70;;
31966;SDS011;18496;52.042;6.812;2023-04-30T08:53:18;9.05;;;4.30;;
31966;SDS011;18496;52.042;6.812;2023-04-30T08:55:24;9.30;;;4.60;;
31966;SDS011;18496;52.042;6.812;2023-04-30T08:57:29;10.60;;;3.95;;
31966;SDS011;18496;52.042;6.812;2023-04-30T08:59:32;8.52;;;4.47;;
31966;SDS011;18496;52.042;6.812;2023-04-30T09:01:36;7.93;;;3.83;;
31966;SDS011;18496;52.042;6.812;2023-04-30T09:03:40;10.45;;;4.18;;
31966;SDS011;18496;52.042;6.812;2023-04-30T09:05:43;8.65;;;4.30;;
31966;SDS011;18496;52.042;6.812;2023-04-30T09:07:47;8.65;;;4.10;;
31966;SDS011;18496;52.042;6.812;2023-04-30T09:09:54;8.18;;;5.15;;
31966;SDS011;18496;52.042;6.812;2023-04-30T09:12:13;8.43;;;4.32;;
31966;SDS011;18496;52.042;6.812;2023-04-30T09:14:24;10.52;;;3.90;;
31966;SDS011;18496;52.042;6.812;2023-04-30T09:16:30;15.57;;;6.65;;
31966;SDS011;18496;52.042;6.812;2023-04-30T09:18:48;11.05;;;5.25;;
31966;SDS011;18496;52.042;6.812;2023-04-30T09:20:56;10.98;;;4.65;;
31966;SDS011;18496;52.042;6.812;2023-04-30T09:23:09;10.63;;;5.05;;
31966;SDS011;18496;52.042;6.812;2023-04-30T09:25:13;12.25;;;5.00;;
31966;SDS011;18496;52.042;6.812;2023-04-30T09:27:18;5.43;;;3.55;;
31966;SDS011;18496;52.042;6.812;2023-04-30T09:29:29;8.73;;;4.13;;
31966;SDS011;18496;52.042;6.812;2023-04-30T09:31:40;12.80;;;3.45;;
31966;SDS011;18496;52.042;6.812;2023-04-30T09:33:48;9.45;;;3.88;;
31966;SDS011;18496;52.042;6.812;2023-04-30T09:35:52;8.63;;;3.47;;
31966;SDS011;18496;52.042;6.812;2023-04-30T09:37:57;6.70;;;3.63;;
31966;SDS011;18496;52.042;6.812;2023-04-30T09:40:02;6.45;;;3.55;;
31966;SDS011;18496;52.042;6.812;2023-04-30T09:42:09;13.68;;;3.90;;
31966;SDS011;18496;52.042;6.812;2023-04-30T09:44:30;12.43;;;3.00;;
31966;SDS011;18496;52.042;6.812;2023-04-30T09:46:35;16.10;;;3.60;;
31966;SDS011;18496;52.042;6.812;2023-04-30T09:48:40;5.93;;;3.33;;
31966;SDS011;18496;52.042;6.812;2023-04-30T09:50:44;6.80;;;3.05;;
31966;SDS011;18496;52.042;6.812;2023-04-30T09:52:52;9.18;;;4.00;;
31966;SDS011;18496;52.042;6.812;2023-04-30T09:54:55;10.15;;;4.13;;
31966;SDS011;18496;52.042;6.812;2023-04-30T09:57:00;6.68;;;2.90;;
31966;SDS011;18496;52.042;6.812;2023-04-30T09:59:04;11.63;;;3.85;;
31966;SDS011;18496;52.042;6.812;2023-04-30T10:01:10;8.77;;;2.90;;
31966;SDS011;18496;52.042;6.812;2023-04-30T10:03:14;10.88;;;3.33;;
31966;SDS011;18496;52.042;6.812;2023-04-30T10:05:19;6.47;;;3.20;;
31966;SDS011;18496;52.042;6.812;2023-04-30T10:07:23;4.95;;;3.25;;
31966;SDS011;18496;52.042;6.812;2023-04-30T10:09:32;9.60;;;3.65;;
31966;SDS011;18496;52.042;6.812;2023-04-30T10:11:43;6.72;;;2.83;;
31966;SDS011;18496;52.042;6.812;2023-04-30T10:13:50;4.75;;;3.17;;
31966;SDS011;18496;52.042;6.812;2023-04-30T10:18:30;24.77;;;6.45;;
31966;SDS011;18496;52.042;6.812;2023-04-30T10:20:36;10.35;;;4.35;;
31966;SDS011;18496;52.042;6.812;2023-04-30T10:22:42;12.68;;;4.88;;
31966;SDS011;18496;52.042;6.812;2023-04-30T10:24:46;13.23;;;4.75;;
31966;SDS011;18496;52.042;6.812;2023-04-30T10:26:51;10.43;;;5.20;;
31966;SDS011;18496;52.042;6.812;2023-04-30T10:28:55;13.30;;;3.95;;
31966;SDS011;18496;52.042;6.812;2023-04-30T10:31:01;10.55;;;3.75;;
31966;SDS011;18496;52.042;6.812;2023-04-30T10:35:27;7.80;;;3.67;;
31966;SDS011;18496;52.042;6.812;2023-04-30T10:37:38;8.32;;;4.22;;
31966;SDS011;18496;52.042;6.812;2023-04-30T10:39:50;6.38;;;3.88;;
31966;SDS011;18496;52.042;6.812;2023-04-30T10:42:04;9.85;;;3.38;;
31966;SDS011;18496;52.042;6.812;2023-04-30T10:44:08;7.90;;;3.60;;
31966;SDS011;18496;52.042;6.812;2023-04-30T10:46:20;7.15;;;3.70;;
31966;SDS011;18496;52.042;6.812;2023-04-30T10:48:25;7.55;;;2.85;;
31966;SDS011;18496;52.042;6.812;2023-04-30T10:50:30;4.35;;;2.90;;
31966;SDS011;18496;52.042;6.812;2023-04-30T10:52:34;8.38;;;4.07;;
31966;SDS011;18496;52.042;6.812;2023-04-30T10:54:40;7.68;;;3.80;;
31966;SDS011;18496;52.042;6.812;2023-04-30T10:56:52;10.80;;;3.95;;
31966;SDS011;18496;52.042;6.812;2023-04-30T10:58:58;4.97;;;2.90;;
31966;SDS011;18496;52.042;6.812;2023-04-30T11:01:08;6.20;;;3.95;;
31966;SDS011;18496;52.042;6.812;2023-04-30T11:03:14;12.48;;;3.03;;
31966;SDS011;18496;52.042;6.812;2023-04-30T11:05:18;4.93;;;2.25;;
31966;SDS011;18496;52.042;6.812;2023-04-30T11:07:24;7.65;;;3.40;;
31966;SDS011;18496;52.042;6.812;2023-04-30T11:09:35;7.18;;;3.63;;
31966;SDS011;18496;52.042;6.812;2023-04-30T11:11:44;4.90;;;2.80;;
31966;SDS011;18496;52.042;6.812;2023-04-30T11:13:59;6.72;;;2.92;;
31966;SDS011;18496;52.042;6.812;2023-04-30T11:16:03;4.93;;;2.30;;
31966;SDS011;18496;52.042;6.812;2023-04-30T11:18:07;4.55;;;2.47;;
31966;SDS011;18496;52.042;6.812;2023-04-30T11:20:12;6.43;;;2.47;;
31966;SDS011;18496;52.042;6.812;2023-04-30T11:22:17;6.20;;;2.80;;
31966;SDS011;18496;52.042;6.812;2023-04-30T11:24:48;4.43;;;2.13;;
31966;SDS011;18496;52.042;6.812;2023-04-30T11:27:03;6.22;;;2.60;;
31966;SDS011;18496;52.042;6.812;2023-04-30T11:29:07;3.92;;;2.38;;
31966;SDS011;18496;52.042;6.812;2023-04-30T11:31:14;4.65;;;2.58;;
31966;SDS011;18496;52.042;6.812;2023-04-30T11:33:19;6.28;;;4.22;;
31966;SDS011;18496;52.042;6.812;2023-04-30T11:35:23;13.88;;;7.53;;
31966;SDS011;18496;52.042;6.812;2023-04-30T11:37:34;8.35;;;4.50;;
31966;SDS011;18496;52.042;6.812;2023-04-30T11:39:40;7.82;;;3.40;;
31966;SDS011;18496;52.042;6.812;2023-04-30T11:41:48;6.30;;;2.17;;
31966;SDS011;18496;52.042;6.812;2023-04-30T11:43:51;6.75;;;2.88;;
31966;SDS011;18496;52.042;6.812;2023-04-30T11:46:02;7.15;;;2.90;;
31966;SDS011;18496;52.042;6.812;2023-04-30T11:48:13;4.03;;;2.25;;
31966;SDS011;18496;52.042;6.812;2023-04-30T11:50:22;3.35;;;2.00;;
31966;SDS011;18496;52.042;6.812;2023-04-30T11:52:31;5.22;;;2.45;;
31966;SDS011;18496;52.042;6.812;2023-04-30T11:54:35;3.83;;;2.20;;
31966;SDS011;18496;52.042;6.812;2023-04-30T11:56:44;4.25;;;2.38;;
31966;SDS011;18496;52.042;6.812;2023-04-30T11:58:52;3.28;;;2.47;;
31966;SDS011;18496;52.042;6.812;2023-04-30T12:00:58;5.10;;;3.05;;
31966;SDS011;18496;52.042;6.812;2023-04-30T12:03:03;5.13;;;2.80;;
31966;SDS011;18496;52.042;6.812;2023-04-30T12:05:16;6.00;;;3.00;;
31966;SDS011;18496;52.042;6.812;2023-04-30T12:07:22;2.97;;;2.13;;
31966;SDS011;18496;52.042;6.812;2023-04-30T12:09:25;3.17;;;1.80;;
31966;SDS011;18496;52.042;6.812;2023-04-30T12:11:29;5.10;;;2.17;;
31966;SDS011;18496;52.042;6.812;2023-04-30T12:13:34;4.15;;;2.22;;
31966;SDS011;18496;52.042;6.812;2023-04-30T12:15:38;4.32;;;2.25;;
31966;SDS011;18496;52.042;6.812;2023-04-30T12:17:45;5.57;;;2.53;;
31966;SDS011;18496;52.042;6.812;2023-04-30T12:19:48;5.32;;;2.13;;
31966;SDS011;18496;52.042;6.812;2023-04-30T12:21:53;4.13;;;2.45;;
31966;SDS011;18496;52.042;6.812;2023-04-30T12:23:57;6.63;;;2.72;;
31966;SDS011;18496;52.042;6.812;2023-04-30T12:26:01;6.35;;;2.45;;
31966;SDS011;18496;52.042;6.812;2023-04-30T12:28:04;3.80;;;2.15;;
31966;SDS011;18496;52.042;6.812;2023-04-30T12:30:08;3.90;;;2.22;;
31966;SDS011;18496;52.042;6.812;2023-04-30T12:32:12;4.65;;;1.92;;
31966;SDS011;18496;52.042;6.812;2023-04-30T12:34:25;5.38;;;2.10;;
31966;SDS011;18496;52.042;6.812;2023-04-30T12:36:32;5.20;;;2.13;;
31966;SDS011;18496;52.042;6.812;2023-04-30T12:38:41;5.28;;;2.15;;
31966;SDS011;18496;52.042;6.812;2023-04-30T12:40:46;9.70;;;2.03;;
31966;SDS011;18496;52.042;6.812;2023-04-30T12:43:02;4.88;;;2.10;;